sensor_id;sensor_type;location;lat;lon;timestamp;pressure;altitude;pressure_sealevel;temperature;humidity
51227;BME280;42714;48.260;10.980;2024-01-15T00:01:19;958.8;;;-1.6;84.0
51227;BME280;42714;48.260;10.980;2024-01-15T00:06:20;958.8;;;-1.5;84.8
51227;BME280;42714;48.260;10.980;2024-01-15T00:11:21;958.7;;;-1.3;84.9
51227;BME280;42714;48.260;10.980;2024-01-15T00:16:22;958.8;;;-1.2;84.6
51227;BME280;42714;48.260;10.980;2024-01-15T00:21:23;958.8;;;-1.0;83.5
51227;BME280;42714;48.260;10.980;2024-01-15T00:26:24;958.8;;;-1.0;82.0
51227;BME280;42714;48.260;10.980;2024-01-15T00:31:25;958.9;;;-0.9;80.7
51227;BME280;42714;48.260;10.980;2024-01-15T00:36:26;958.9;;;-1.1;79.0
51227;BME280;42714;48.260;10.980;2024-01-15T00:41:27;958.8;;;-1.3;76.6
51227;BME280;42714;48.260;10.980;2024-01-15T00:46:28;958.8;;;-1.5;75.3
51227;BME280;42714;48.260;10.980;2024-01-15T00:51:29;958.9;;;-1.7;75.1
51227;BME280;42714;48.260;10.980;2024-01-15T00:56:30;959.0;;;-1.8;75.6
51227;BME280;42714;48.260;10.980;2024-01-15T01:01:31;958.9;;;-1.8;75.7
51227;BME280;42714;48.260;10.980;2024-01-15T01:06:32;958.9;;;-2.0;76.1
51227;BME280;42714;48.260;10.980;2024-01-15T01:11:33;958.8;;;-2.1;76.3
51227;BME280;42714;48.260;10.980;2024-01-15T01:16:34;958.8;;;-2.1;76.0
51227;BME280;42714;48.260;10.980;2024-01-15T01:21:35;958.7;;;-2.2;75.8
51227;BME280;42714;48.260;10.980;2024-01-15T01:26:36;958.8;;;-2.3;76.0
51227;BME280;42714;48.260;10.980;2024-01-15T01:31:42;958.8;;;-2.3;76.3
51227;BME280;42714;48.260;10.980;2024-01-15T01:36:38;958.9;;;-2.4;76.8
51227;BME280;42714;48.260;10.980;2024-01-15T01:41:39;958.9;;;-2.5;77.1
51227;BME280;42714;48.260;10.980;2024-01-15T01:46:40;959.0;;;-2.5;77.4
51227;BME280;42714;48.260;10.980;2024-01-15T01:51:41;959.0;;;-2.5;77.4
51227;BME280;42714;48.260;10.980;2024-01-15T01:56:42;959.0;;;-2.6;77.6
51227;BME280;42714;48.260;10.980;2024-01-15T02:01:44;959.0;;;-2.6;78.1
51227;BME280;42714;48.260;10.980;2024-01-15T02:06:44;958.9;;;-2.6;78.5
51227;BME280;42714;48.260;10.980;2024-01-15T02:11:46;958.9;;;-2.6;78.8
51227;BME280;42714;48.260;10.980;2024-01-15T02:16:46;958.8;;;-2.7;79.3
51227;BME280;42714;48.260;10.980;2024-01-15T02:21:47;958.7;;;-2.6;79.8
51227;BME280;42714;48.260;10.980;2024-01-15T02:26:48;958.8;;;-2.5;80.1
51227;BME280;42714;48.260;10.980;2024-01-15T02:31:49;958.7;;;-2.2;79.8
51227;BME280;42714;48.260;10.980;2024-01-15T02:36:50;958.8;;;-2.1;79.4
51227;BME280;42714;48.260;10.980;2024-01-15T02:41:51;958.8;;;-2.0;78.8
51227;BME280;42714;48.260;10.980;2024-01-15T02:46:52;958.8;;;-2.1;78.7
51227;BME280;42714;48.260;10.980;2024-01-15T02:51:53;958.9;;;-2.3;78.9
51227;BME280;42714;48.260;10.980;2024-01-15T02:56:54;958.9;;;-2.4;79.5
51227;BME280;42714;48.260;10.980;2024-01-15T03:01:55;958.9;;;-2.6;79.9
51227;BME280;42714;48.260;10.980;2024-01-15T03:06:56;958.9;;;-2.7;80.2
51227;BME280;42714;48.260;10.980;2024-01-15T03:11:57;958.9;;;-2.7;80.4
51227;BME280;42714;48.260;10.980;2024-01-15T03:16:58;958.8;;;-2.7;80.7
51227;BME280;42714;48.260;10.980;2024-01-15T03:21:59;958.8;;;-2.9;80.8
51227;BME280;42714;48.260;10.980;2024-01-15T03:27:00;958.8;;;-2.9;81.0
51227;BME280;42714;48.260;10.980;2024-01-15T03:32:01;958.8;;;-3.0;81.4
51227;BME280;42714;48.260;10.980;2024-01-15T03:37:02;958.7;;;-2.9;81.6
51227;BME280;42714;48.260;10.980;2024-01-15T03:42:03;958.8;;;-3.0;81.7
51227;BME280;42714;48.260;10.980;2024-01-15T03:47:04;958.8;;;-3.0;81.6
51227;BME280;42714;48.260;10.980;2024-01-15T03:52:05;958.8;;;-3.0;81.7
51227;BME280;42714;48.260;10.980;2024-01-15T03:57:06;958.8;;;-2.9;81.5
51227;BME280;42714;48.260;10.980;2024-01-15T04:02:07;958.7;;;-2.9;81.4
51227;BME280;42714;48.260;10.980;2024-01-15T04:07:09;958.6;;;-2.7;80.9
51227;BME280;42714;48.260;10.980;2024-01-15T04:12:09;958.7;;;-2.6;80.2
51227;BME280;42714;48.260;10.980;2024-01-15T04:17:10;958.4;;;-2.4;79.7
51227;BME280;42714;48.260;10.980;2024-01-15T04:22:11;958.6;;;-2.3;79.2
51227;BME280;42714;48.260;10.980;2024-01-15T04:27:12;958.7;;;-2.1;78.3
51227;BME280;42714;48.260;10.980;2024-01-15T04:32:13;958.7;;;-2.2;77.8
51227;BME280;42714;48.260;10.980;2024-01-15T04:37:14;958.7;;;-2.2;77.4
51227;BME280;42714;48.260;10.980;2024-01-15T04:42:15;958.8;;;-2.3;77.1
51227;BME280;42714;48.260;10.980;2024-01-15T04:47:16;958.9;;;-2.4;77.2
51227;BME280;42714;48.260;10.980;2024-01-15T04:52:17;958.8;;;-2.4;77.1
51227;BME280;42714;48.260;10.980;2024-01-15T04:57:18;958.8;;;-2.4;77.4
51227;BME280;42714;48.260;10.980;2024-01-15T05:02:19;958.6;;;-2.2;77.2
51227;BME280;42714;48.260;10.980;2024-01-15T05:07:20;958.8;;;-2.0;76.9
51227;BME280;42714;48.260;10.980;2024-01-15T05:12:21;958.8;;;-1.9;76.2
51227;BME280;42714;48.260;10.980;2024-01-15T05:17:22;958.8;;;-1.7;75.6
51227;BME280;42714;48.260;10.980;2024-01-15T05:22:23;958.8;;;-1.6;75.0
51227;BME280;42714;48.260;10.980;2024-01-15T05:27:24;958.7;;;-1.6;75.0
51227;BME280;42714;48.260;10.980;2024-01-15T05:32:25;958.8;;;-1.5;75.0
51227;BME280;42714;48.260;10.980;2024-01-15T05:37:26;958.8;;;-1.4;74.8
51227;BME280;42714;48.260;10.980;2024-01-15T05:42:27;958.8;;;-1.3;74.4
51227;BME280;42714;48.260;10.980;2024-01-15T05:47:28;958.7;;;-1.4;74.0
51227;BME280;42714;48.260;10.980;2024-01-15T05:52:29;958.7;;;-1.3;73.7
51227;BME280;42714;48.260;10.980;2024-01-15T05:57:30;958.7;;;-1.3;73.7
51227;BME280;42714;48.260;10.980;2024-01-15T06:02:31;958.7;;;-1.3;73.7
51227;BME280;42714;48.260;10.980;2024-01-15T06:07:34;958.7;;;-1.2;73.6
51227;BME280;42714;48.260;10.980;2024-01-15T06:12:33;958.7;;;-1.1;73.6
51227;BME280;42714;48.260;10.980;2024-01-15T06:17:35;958.7;;;-1.1;73.5
51227;BME280;42714;48.260;10.980;2024-01-15T06:22:35;958.7;;;-1.1;73.7
51227;BME280;42714;48.260;10.980;2024-01-15T06:27:36;958.7;;;-1.2;73.9
51227;BME280;42714;48.260;10.980;2024-01-15T06:32:37;958.7;;;-1.1;74.2
51227;BME280;42714;48.260;10.980;2024-01-15T06:37:38;958.7;;;-1.2;74.6
51227;BME280;42714;48.260;10.980;2024-01-15T06:42:40;958.7;;;-1.1;74.5
51227;BME280;42714;48.260;10.980;2024-01-15T06:47:40;958.6;;;-1.1;74.8
51227;BME280;42714;48.260;10.980;2024-01-15T06:52:41;958.6;;;-1.0;74.9
51227;BME280;42714;48.260;10.980;2024-01-15T06:57:42;958.5;;;-0.9;74.9
51227;BME280;42714;48.260;10.980;2024-01-15T07:02:43;958.4;;;-0.9;75.0
51227;BME280;42714;48.260;10.980;2024-01-15T07:07:44;958.4;;;-0.9;75.4
51227;BME280;42714;48.260;10.980;2024-01-15T07:12:45;958.4;;;-0.9;75.8
51227;BME280;42714;48.260;10.980;2024-01-15T07:17:46;958.3;;;-0.9;75.6
51227;BME280;42714;48.260;10.980;2024-01-15T07:22:47;958.0;;;-0.8;73.4
51227;BME280;42714;48.260;10.980;2024-01-15T07:27:48;958.1;;;-0.6;69.2
51227;BME280;42714;48.260;10.980;2024-01-15T07:32:49;958.1;;;-0.4;68.0
51227;BME280;42714;48.260;10.980;2024-01-15T07:37:50;958.1;;;-0.3;67.5
51227;BME280;42714;48.260;10.980;2024-01-15T07:42:51;958.0;;;-0.1;67.1
51227;BME280;42714;48.260;10.980;2024-01-15T07:47:52;958.0;;;0.1;65.9
51227;BME280;42714;48.260;10.980;2024-01-15T07:52:53;958.0;;;0.2;64.5
51227;BME280;42714;48.260;10.980;2024-01-15T07:57:54;958.0;;;0.4;62.4
51227;BME280;42714;48.260;10.980;2024-01-15T08:02:55;958.0;;;0.5;62.5
51227;BME280;42714;48.260;10.980;2024-01-15T08:07:56;957.9;;;0.5;62.9
51227;BME280;42714;48.260;10.980;2024-01-15T08:12:57;958.0;;;0.6;63.7
51227;BME280;42714;48.260;10.980;2024-01-15T08:17:58;958.0;;;0.5;63.9
51227;BME280;42714;48.260;10.980;2024-01-15T08:22:59;958.1;;;0.5;65.2
51227;BME280;42714;48.260;10.980;2024-01-15T08:28:00;958.0;;;0.6;66.3
51227;BME280;42714;48.260;10.980;2024-01-15T08:33:01;958.1;;;0.6;67.5
51227;BME280;42714;48.260;10.980;2024-01-15T08:38:02;958.2;;;0.6;68.3
51227;BME280;42714;48.260;10.980;2024-01-15T08:43:03;958.2;;;0.4;69.1
51227;BME280;42714;48.260;10.980;2024-01-15T08:48:04;958.3;;;0.5;69.6
51227;BME280;42714;48.260;10.980;2024-01-15T08:53:05;958.2;;;0.5;69.9
51227;BME280;42714;48.260;10.980;2024-01-15T08:58:06;958.0;;;0.7;69.5
51227;BME280;42714;48.260;10.980;2024-01-15T09:03:07;958.1;;;0.9;68.9
51227;BME280;42714;48.260;10.980;2024-01-15T09:08:08;958.1;;;0.9;68.1
51227;BME280;42714;48.260;10.980;2024-01-15T09:13:09;958.1;;;0.9;68.0
51227;BME280;42714;48.260;10.980;2024-01-15T09:18:10;958.0;;;0.9;67.9
51227;BME280;42714;48.260;10.980;2024-01-15T09:23:11;958.0;;;0.9;67.6
51227;BME280;42714;48.260;10.980;2024-01-15T09:28:12;958.1;;;1.0;67.7
51227;BME280;42714;48.260;10.980;2024-01-15T09:33:13;958.1;;;0.9;67.9
51227;BME280;42714;48.260;10.980;2024-01-15T09:38:14;958.2;;;0.9;68.1
51227;BME280;42714;48.260;10.980;2024-01-15T09:43:15;958.1;;;0.9;68.5
51227;BME280;42714;48.260;10.980;2024-01-15T09:48:16;958.1;;;0.9;68.5
51227;BME280;42714;48.260;10.980;2024-01-15T09:53:17;958.1;;;0.7;68.9
51227;BME280;42714;48.260;10.980;2024-01-15T09:58:19;958.0;;;0.7;69.2
51227;BME280;42714;48.260;10.980;2024-01-15T10:03:19;958.0;;;0.7;69.2
51227;BME280;42714;48.260;10.980;2024-01-15T10:08:20;958.0;;;0.9;68.2
51227;BME280;42714;48.260;10.980;2024-01-15T10:13:22;957.9;;;0.6;68.0
51227;BME280;42714;48.260;10.980;2024-01-15T10:18:22;957.7;;;1.9;65.8
51227;BME280;42714;48.260;10.980;2024-01-15T10:23:24;957.5;;;3.3;60.4
51227;BME280;42714;48.260;10.980;2024-01-15T10:28:27;957.6;;;4.7;56.0
51227;BME280;42714;48.260;10.980;2024-01-15T10:33:26;957.6;;;5.9;51.6
51227;BME280;42714;48.260;10.980;2024-01-15T10:38:27;957.4;;;6.7;49.6
51227;BME280;42714;48.260;10.980;2024-01-15T10:43:28;957.3;;;7.6;45.9
51227;BME280;42714;48.260;10.980;2024-01-15T10:48:29;957.3;;;8.0;44.0
51227;BME280;42714;48.260;10.980;2024-01-15T10:53:30;957.2;;;8.2;43.3
51227;BME280;42714;48.260;10.980;2024-01-15T10:58:31;957.2;;;8.7;42.8
51227;BME280;42714;48.260;10.980;2024-01-15T11:03:32;957.2;;;9.0;41.0
51227;BME280;42714;48.260;10.980;2024-01-15T11:08:33;957.2;;;7.8;43.0
51227;BME280;42714;48.260;10.980;2024-01-15T11:18:35;957.1;;;6.0;47.8
51227;BME280;42714;48.260;10.980;2024-01-15T11:28:47;956.9;;;6.7;46.7
51227;BME280;42714;48.260;10.980;2024-01-15T11:33:38;957.1;;;7.3;45.7
51227;BME280;42714;48.260;10.980;2024-01-15T11:38:39;957.0;;;6.3;47.5
51227;BME280;42714;48.260;10.980;2024-01-15T11:43:40;957.0;;;5.3;50.4
51227;BME280;42714;48.260;10.980;2024-01-15T11:48:42;956.8;;;4.3;53.6
51227;BME280;42714;48.260;10.980;2024-01-15T11:53:43;956.6;;;3.3;56.5
51227;BME280;42714;48.260;10.980;2024-01-15T11:58:43;956.6;;;4.4;54.0
51227;BME280;42714;48.260;10.980;2024-01-15T12:03:44;956.6;;;6.7;48.9
51227;BME280;42714;48.260;10.980;2024-01-15T12:08:45;956.5;;;8.1;44.6
51227;BME280;42714;48.260;10.980;2024-01-15T12:13:46;956.4;;;8.4;43.1
51227;BME280;42714;48.260;10.980;2024-01-15T12:18:47;956.3;;;9.5;41.7
51227;BME280;42714;48.260;10.980;2024-01-15T12:23:48;956.3;;;8.7;41.5
51227;BME280;42714;48.260;10.980;2024-01-15T12:28:50;956.2;;;7.3;46.3
51227;BME280;42714;48.260;10.980;2024-01-15T12:33:50;956.2;;;5.4;49.9
51227;BME280;42714;48.260;10.980;2024-01-15T12:38:51;956.3;;;4.4;53.5
51227;BME280;42714;48.260;10.980;2024-01-15T12:43:52;956.5;;;3.9;55.5
51227;BME280;42714;48.260;10.980;2024-01-15T12:48:53;956.5;;;3.9;56.2
51227;BME280;42714;48.260;10.980;2024-01-15T12:53:54;956.7;;;3.9;56.0
51227;BME280;42714;48.260;10.980;2024-01-15T12:58:55;956.6;;;3.8;56.3
51227;BME280;42714;48.260;10.980;2024-01-15T13:03:56;956.6;;;3.4;58.1
51227;BME280;42714;48.260;10.980;2024-01-15T13:08:57;956.6;;;3.5;58.3
51227;BME280;42714;48.260;10.980;2024-01-15T13:13:58;956.5;;;3.2;59.0
51227;BME280;42714;48.260;10.980;2024-01-15T13:18:59;956.5;;;3.0;60.8
51227;BME280;42714;48.260;10.980;2024-01-15T13:24:00;956.4;;;3.0;62.0
51227;BME280;42714;48.260;10.980;2024-01-15T13:29:01;956.4;;;3.0;62.5
51227;BME280;42714;48.260;10.980;2024-01-15T13:34:02;956.4;;;2.8;62.9
51227;BME280;42714;48.260;10.980;2024-01-15T13:39:03;956.5;;;2.5;64.0
51227;BME280;42714;48.260;10.980;2024-01-15T13:44:04;956.4;;;2.4;65.1
51227;BME280;42714;48.260;10.980;2024-01-15T13:49:05;956.4;;;2.2;66.6
51227;BME280;42714;48.260;10.980;2024-01-15T13:54:06;956.5;;;2.3;67.3
51227;BME280;42714;48.260;10.980;2024-01-15T13:59:07;956.5;;;2.1;67.7
51227;BME280;42714;48.260;10.980;2024-01-15T14:04:08;956.6;;;1.9;68.7
51227;BME280;42714;48.260;10.980;2024-01-15T14:09:09;956.6;;;1.8;69.8
51227;BME280;42714;48.260;10.980;2024-01-15T14:14:10;956.7;;;1.8;70.1
51227;BME280;42714;48.260;10.980;2024-01-15T14:19:11;956.7;;;1.6;70.6
51227;BME280;42714;48.260;10.980;2024-01-15T14:24:12;956.8;;;1.5;71.0
51227;BME280;42714;48.260;10.980;2024-01-15T14:29:13;956.9;;;1.5;71.1
51227;BME280;42714;48.260;10.980;2024-01-15T14:34:14;956.9;;;1.5;70.9
51227;BME280;42714;48.260;10.980;2024-01-15T14:39:15;957.0;;;1.5;71.1
51227;BME280;42714;48.260;10.980;2024-01-15T14:44:16;957.1;;;1.6;71.1
51227;BME280;42714;48.260;10.980;2024-01-15T14:49:17;957.0;;;1.6;70.6
51227;BME280;42714;48.260;10.980;2024-01-15T14:54:18;957.1;;;1.5;71.1
51227;BME280;42714;48.260;10.980;2024-01-15T14:59:19;957.2;;;1.6;70.3
51227;BME280;42714;48.260;10.980;2024-01-15T15:04:20;957.2;;;1.6;70.7
51227;BME280;42714;48.260;10.980;2024-01-15T15:09:21;957.5;;;1.6;71.0
51227;BME280;42714;48.260;10.980;2024-01-15T15:14:22;957.6;;;1.5;72.5
51227;BME280;42714;48.260;10.980;2024-01-15T15:19:23;957.7;;;1.4;74.7
51227;BME280;42714;48.260;10.980;2024-01-15T15:24:24;957.7;;;1.2;77.0
51227;BME280;42714;48.260;10.980;2024-01-15T15:29:25;957.8;;;1.0;79.0
51227;BME280;42714;48.260;10.980;2024-01-15T15:34:26;957.9;;;0.9;80.8
51227;BME280;42714;48.260;10.980;2024-01-15T15:39:27;957.9;;;0.9;83.0
51227;BME280;42714;48.260;10.980;2024-01-15T15:44:28;958.0;;;0.8;85.0
51227;BME280;42714;48.260;10.980;2024-01-15T15:49:29;958.0;;;0.8;86.7
51227;BME280;42714;48.260;10.980;2024-01-15T15:54:30;958.1;;;0.7;87.8
51227;BME280;42714;48.260;10.980;2024-01-15T15:59:31;958.2;;;0.7;88.7
51227;BME280;42714;48.260;10.980;2024-01-15T16:04:32;958.3;;;0.6;89.5
51227;BME280;42714;48.260;10.980;2024-01-15T16:09:33;958.3;;;0.7;90.0
51227;BME280;42714;48.260;10.980;2024-01-15T16:14:34;958.4;;;0.7;90.5
51227;BME280;42714;48.260;10.980;2024-01-15T16:19:35;958.5;;;0.6;90.9
51227;BME280;42714;48.260;10.980;2024-01-15T16:24:36;958.5;;;0.7;91.1
51227;BME280;42714;48.260;10.980;2024-01-15T16:29:37;958.5;;;0.7;91.2
51227;BME280;42714;48.260;10.980;2024-01-15T16:34:38;958.6;;;0.6;91.2
51227;BME280;42714;48.260;10.980;2024-01-15T16:39:39;958.7;;;0.6;91.3
51227;BME280;42714;48.260;10.980;2024-01-15T16:44:40;958.7;;;0.6;91.6
51227;BME280;42714;48.260;10.980;2024-01-15T16:49:41;958.8;;;0.5;91.8
51227;BME280;42714;48.260;10.980;2024-01-15T16:54:42;958.9;;;0.5;92.0
51227;BME280;42714;48.260;10.980;2024-01-15T16:59:43;959.0;;;0.5;92.2
51227;BME280;42714;48.260;10.980;2024-01-15T17:04:44;959.5;;;0.6;92.6
51227;BME280;42714;48.260;10.980;2024-01-15T17:09:45;959.5;;;0.0;95.1
51227;BME280;42714;48.260;10.980;2024-01-15T17:14:46;959.6;;;-0.2;96.6
51227;BME280;42714;48.260;10.980;2024-01-15T17:19:48;959.5;;;-0.3;96.4
51227;BME280;42714;48.260;10.980;2024-01-15T17:24:48;959.5;;;-0.4;95.7
51227;BME280;42714;48.260;10.980;2024-01-15T17:29:49;959.6;;;-0.4;95.6
51227;BME280;42714;48.260;10.980;2024-01-15T17:34:50;959.6;;;-0.4;95.6
51227;BME280;42714;48.260;10.980;2024-01-15T17:39:51;959.6;;;-0.4;94.8
51227;BME280;42714;48.260;10.980;2024-01-15T17:44:52;959.9;;;-0.4;93.4
51227;BME280;42714;48.260;10.980;2024-01-15T17:49:53;959.9;;;-0.4;92.7
51227;BME280;42714;48.260;10.980;2024-01-15T17:54:54;960.0;;;-0.4;91.9
51227;BME280;42714;48.260;10.980;2024-01-15T17:59:55;960.2;;;-0.4;91.0
51227;BME280;42714;48.260;10.980;2024-01-15T18:04:56;960.2;;;-0.4;90.2
51227;BME280;42714;48.260;10.980;2024-01-15T18:09:57;960.3;;;-0.4;89.4
51227;BME280;42714;48.260;10.980;2024-01-15T18:14:59;960.3;;;-0.4;88.9
51227;BME280;42714;48.260;10.980;2024-01-15T18:19:59;960.4;;;-0.3;87.9
51227;BME280;42714;48.260;10.980;2024-01-15T18:25:00;960.4;;;-0.4;86.4
51227;BME280;42714;48.260;10.980;2024-01-15T18:30:01;960.5;;;-0.4;84.2
51227;BME280;42714;48.260;10.980;2024-01-15T18:35:02;960.6;;;-0.6;82.1
51227;BME280;42714;48.260;10.980;2024-01-15T18:45:05;960.7;;;-0.9;80.0
51227;BME280;42714;48.260;10.980;2024-01-15T18:55:07;960.7;;;-1.1;79.9
51227;BME280;42714;48.260;10.980;2024-01-15T19:00:07;960.7;;;-1.2;79.3
51227;BME280;42714;48.260;10.980;2024-01-15T19:05:08;960.8;;;-1.3;79.4
51227;BME280;42714;48.260;10.980;2024-01-15T19:10:09;960.9;;;-1.4;78.8
51227;BME280;42714;48.260;10.980;2024-01-15T19:15:10;960.9;;;-1.5;78.5
51227;BME280;42714;48.260;10.980;2024-01-15T19:20:12;961.1;;;-1.5;78.0
51227;BME280;42714;48.260;10.980;2024-01-15T19:25:12;961.2;;;-1.6;78.0
51227;BME280;42714;48.260;10.980;2024-01-15T19:30:13;961.2;;;-1.7;78.6
51227;BME280;42714;48.260;10.980;2024-01-15T19:35:14;961.4;;;-1.8;79.1
51227;BME280;42714;48.260;10.980;2024-01-15T19:40:15;961.4;;;-1.9;79.6
51227;BME280;42714;48.260;10.980;2024-01-15T19:45:16;961.6;;;-2.0;79.2
51227;BME280;42714;48.260;10.980;2024-01-15T19:50:17;961.6;;;-2.2;79.3
51227;BME280;42714;48.260;10.980;2024-01-15T19:55:18;961.7;;;-2.2;80.6
51227;BME280;42714;48.260;10.980;2024-01-15T20:00:19;961.7;;;-2.2;80.4
51227;BME280;42714;48.260;10.980;2024-01-15T20:05:20;961.8;;;-2.3;80.1
51227;BME280;42714;48.260;10.980;2024-01-15T20:10:21;961.8;;;-2.5;79.3
51227;BME280;42714;48.260;10.980;2024-01-15T20:15:22;961.9;;;-2.6;78.8
51227;BME280;42714;48.260;10.980;2024-01-15T20:20:23;961.9;;;-2.7;78.4
51227;BME280;42714;48.260;10.980;2024-01-15T20:25:24;962.1;;;-2.7;78.5
51227;BME280;42714;48.260;10.980;2024-01-15T20:30:25;962.1;;;-2.7;78.6
51227;BME280;42714;48.260;10.980;2024-01-15T20:35:26;962.1;;;-2.7;78.5
51227;BME280;42714;48.260;10.980;2024-01-15T20:40:27;962.2;;;-2.7;78.2
51227;BME280;42714;48.260;10.980;2024-01-15T20:45:28;962.3;;;-2.7;78.9
51227;BME280;42714;48.260;10.980;2024-01-15T20:50:29;962.3;;;-2.7;79.0
51227;BME280;42714;48.260;10.980;2024-01-15T20:55:30;962.4;;;-2.7;78.7
51227;BME280;42714;48.260;10.980;2024-01-15T21:00:31;962.4;;;-2.7;78.5
51227;BME280;42714;48.260;10.980;2024-01-15T21:05:32;962.4;;;-2.7;78.4
51227;BME280;42714;48.260;10.980;2024-01-15T21:10:33;962.3;;;-2.7;78.1
51227;BME280;42714;48.260;10.980;2024-01-15T21:15:34;962.3;;;-2.6;77.8
51227;BME280;42714;48.260;10.980;2024-01-15T21:20:35;962.3;;;-2.6;77.2
51227;BME280;42714;48.260;10.980;2024-01-15T21:25:36;962.3;;;-2.5;76.7
51227;BME280;42714;48.260;10.980;2024-01-15T21:30:37;962.4;;;-2.5;76.1
51227;BME280;42714;48.260;10.980;2024-01-15T21:35:38;962.5;;;-2.4;75.0
51227;BME280;42714;48.260;10.980;2024-01-15T21:40:39;962.5;;;-2.4;73.6
51227;BME280;42714;48.260;10.980;2024-01-15T21:45:40;962.4;;;-2.5;73.1
51227;BME280;42714;48.260;10.980;2024-01-15T21:50:41;962.6;;;-2.3;72.7
51227;BME280;42714;48.260;10.980;2024-01-15T21:55:42;962.6;;;-2.2;72.6
51227;BME280;42714;48.260;10.980;2024-01-15T22:00:43;962.6;;;-2.1;72.4
51227;BME280;42714;48.260;10.980;2024-01-15T22:05:44;962.6;;;-2.0;71.9
51227;BME280;42714;48.260;10.980;2024-01-15T22:10:45;962.7;;;-2.0;71.3
51227;BME280;42714;48.260;10.980;2024-01-15T22:15:46;962.8;;;-2.0;71.5
51227;BME280;42714;48.260;10.980;2024-01-15T22:20:47;962.8;;;-2.0;71.6
51227;BME280;42714;48.260;10.980;2024-01-15T22:25:48;962.8;;;-1.9;71.4
51227;BME280;42714;48.260;10.980;2024-01-15T22:30:49;962.8;;;-1.9;71.2
51227;BME280;42714;48.260;10.980;2024-01-15T22:35:50;962.8;;;-1.8;71.1
51227;BME280;42714;48.260;10.980;2024-01-15T23:41:04;963.3;;;-1.9;69.5
